sensor_id;sensor_type;location;lat;lon;timestamp;P1;durP1;ratioP1;P2;durP2;ratioP2
5742;SDS011;2896;53.500;10.020;2024-01-25T00:01:36;63.17;;;8.97;;
5742;SDS011;2896;53.500;10.020;2024-01-25T00:04:05;53.83;;;8.00;;
5742;SDS011;2896;53.500;10.020;2024-01-25T00:06:32;39.93;;;8.00;;
5742;SDS011;2896;53.500;10.020;2024-01-25T00:08:58;64.57;;;11.47;;
5742;SDS011;2896;53.500;10.020;2024-01-25T00:11:26;55.63;;;8.17;;
5742;SDS011;2896;53.500;10.020;2024-01-25T00:13:52;63.30;;;7.73;;
5742;SDS011;2896;53.500;10.020;2024-01-25T00:16:19;61.80;;;9.90;;
5742;SDS011;2896;53.500;10.020;2024-01-25T00:18:46;44.33;;;7.80;;
5742;SDS011;2896;53.500;10.020;2024-01-25T00:21:14;58.33;;;9.60;;
5742;SDS011;2896;53.500;10.020;2024-01-25T00:23:40;68.20;;;8.30;;
5742;SDS011;2896;53.500;10.020;2024-01-25T00:26:07;59.43;;;8.97;;
5742;SDS011;2896;53.500;10.020;2024-01-25T00:28:33;77.60;;;9.80;;
5742;SDS011;2896;53.500;10.020;2024-01-25T00:31:00;54.87;;;7.57;;
5742;SDS011;2896;53.500;10.020;2024-01-25T00:33:27;48.73;;;9.10;;
5742;SDS011;2896;53.500;10.020;2024-01-25T00:35:54;48.60;;;7.93;;
5742;SDS011;2896;53.500;10.020;2024-01-25T00:38:22;51.53;;;8.90;;
5742;SDS011;2896;53.500;10.020;2024-01-25T00:40:49;52.70;;;9.20;;
5742;SDS011;2896;53.500;10.020;2024-01-25T00:43:16;47.20;;;8.13;;
5742;SDS011;2896;53.500;10.020;2024-01-25T00:45:44;46.63;;;7.37;;
5742;SDS011;2896;53.500;10.020;2024-01-25T00:48:11;57.33;;;8.17;;
5742;SDS011;2896;53.500;10.020;2024-01-25T00:50:39;45.47;;;8.77;;
5742;SDS011;2896;53.500;10.020;2024-01-25T00:53:06;45.53;;;8.13;;
5742;SDS011;2896;53.500;10.020;2024-01-25T00:55:35;56.50;;;8.80;;
5742;SDS011;2896;53.500;10.020;2024-01-25T00:58:02;56.57;;;8.40;;
5742;SDS011;2896;53.500;10.020;2024-01-25T01:00:30;54.17;;;6.87;;
5742;SDS011;2896;53.500;10.020;2024-01-25T01:02:57;41.27;;;8.70;;
5742;SDS011;2896;53.500;10.020;2024-01-25T01:05:27;71.80;;;8.07;;
5742;SDS011;2896;53.500;10.020;2024-01-25T01:07:54;43.67;;;7.60;;
5742;SDS011;2896;53.500;10.020;2024-01-25T01:10:21;48.83;;;7.63;;
5742;SDS011;2896;53.500;10.020;2024-01-25T01:12:49;38.93;;;7.80;;
5742;SDS011;2896;53.500;10.020;2024-01-25T01:15:17;62.27;;;9.50;;
5742;SDS011;2896;53.500;10.020;2024-01-25T01:17:43;68.47;;;8.80;;
5742;SDS011;2896;53.500;10.020;2024-01-25T01:20:10;59.97;;;9.33;;
5742;SDS011;2896;53.500;10.020;2024-01-25T01:22:37;69.03;;;10.40;;
5742;SDS011;2896;53.500;10.020;2024-01-25T01:25:04;52.10;;;7.87;;
5742;SDS011;2896;53.500;10.020;2024-01-25T01:27:31;38.93;;;7.50;;
5742;SDS011;2896;53.500;10.020;2024-01-25T01:29:59;69.97;;;10.63;;
5742;SDS011;2896;53.500;10.020;2024-01-25T01:32:25;47.93;;;9.20;;
5742;SDS011;2896;53.500;10.020;2024-01-25T01:34:52;50.00;;;9.00;;
5742;SDS011;2896;53.500;10.020;2024-01-25T01:37:18;64.33;;;9.27;;
5742;SDS011;2896;53.500;10.020;2024-01-25T01:39:45;55.47;;;8.20;;
5742;SDS011;2896;53.500;10.020;2024-01-25T01:42:12;68.73;;;9.00;;
5742;SDS011;2896;53.500;10.020;2024-01-25T01:44:38;54.30;;;7.90;;
5742;SDS011;2896;53.500;10.020;2024-01-25T01:47:06;49.47;;;8.33;;
5742;SDS011;2896;53.500;10.020;2024-01-25T01:49:33;58.97;;;10.40;;
5742;SDS011;2896;53.500;10.020;2024-01-25T01:52:00;72.40;;;10.77;;
5742;SDS011;2896;53.500;10.020;2024-01-25T01:54:28;53.67;;;8.73;;
5742;SDS011;2896;53.500;10.020;2024-01-25T01:56:55;37.77;;;7.27;;
5742;SDS011;2896;53.500;10.020;2024-01-25T01:59:22;57.13;;;9.57;;
5742;SDS011;2896;53.500;10.020;2024-01-25T02:01:50;64.80;;;10.27;;
5742;SDS011;2896;53.500;10.020;2024-01-25T02:04:18;60.13;;;9.40;;
5742;SDS011;2896;53.500;10.020;2024-01-25T02:06:45;67.10;;;9.60;;
5742;SDS011;2896;53.500;10.020;2024-01-25T02:09:11;65.77;;;9.00;;
5742;SDS011;2896;53.500;10.020;2024-01-25T02:11:38;56.37;;;7.40;;
5742;SDS011;2896;53.500;10.020;2024-01-25T02:14:05;44.97;;;8.40;;
5742;SDS011;2896;53.500;10.020;2024-01-25T02:16:35;55.87;;;8.50;;
5742;SDS011;2896;53.500;10.020;2024-01-25T02:19:02;63.90;;;9.30;;
5742;SDS011;2896;53.500;10.020;2024-01-25T02:21:30;60.13;;;8.30;;
5742;SDS011;2896;53.500;10.020;2024-01-25T02:23:58;53.70;;;9.53;;
5742;SDS011;2896;53.500;10.020;2024-01-25T02:26:25;43.43;;;9.70;;
5742;SDS011;2896;53.500;10.020;2024-01-25T02:28:51;73.13;;;8.33;;
5742;SDS011;2896;53.500;10.020;2024-01-25T02:31:18;62.17;;;7.80;;
5742;SDS011;2896;53.500;10.020;2024-01-25T02:33:44;67.63;;;9.70;;
5742;SDS011;2896;53.500;10.020;2024-01-25T02:36:11;58.97;;;7.77;;
5742;SDS011;2896;53.500;10.020;2024-01-25T02:38:38;49.07;;;9.07;;
5742;SDS011;2896;53.500;10.020;2024-01-25T02:41:06;63.33;;;8.70;;
5742;SDS011;2896;53.500;10.020;2024-01-25T02:43:32;66.73;;;9.73;;
5742;SDS011;2896;53.500;10.020;2024-01-25T02:45:59;60.07;;;8.90;;
5742;SDS011;2896;53.500;10.020;2024-01-25T02:48:26;66.53;;;7.87;;
5742;SDS011;2896;53.500;10.020;2024-01-25T02:50:52;64.80;;;9.53;;
5742;SDS011;2896;53.500;10.020;2024-01-25T02:53:19;62.67;;;9.03;;
5742;SDS011;2896;53.500;10.020;2024-01-25T02:55:45;72.77;;;8.40;;
5742;SDS011;2896;53.500;10.020;2024-01-25T02:58:13;43.67;;;6.40;;
5742;SDS011;2896;53.500;10.020;2024-01-25T03:00:40;77.93;;;10.03;;
5742;SDS011;2896;53.500;10.020;2024-01-25T03:03:07;48.03;;;8.57;;
5742;SDS011;2896;53.500;10.020;2024-01-25T03:05:33;54.53;;;9.27;;
5742;SDS011;2896;53.500;10.020;2024-01-25T03:08:00;53.70;;;8.83;;
5742;SDS011;2896;53.500;10.020;2024-01-25T03:10:27;58.30;;;7.73;;
5742;SDS011;2896;53.500;10.020;2024-01-25T03:12:53;77.37;;;10.70;;
5742;SDS011;2896;53.500;10.020;2024-01-25T03:15:22;79.80;;;9.50;;
5742;SDS011;2896;53.500;10.020;2024-01-25T03:17:48;60.83;;;8.77;;
5742;SDS011;2896;53.500;10.020;2024-01-25T03:20:15;36.20;;;7.13;;
5742;SDS011;2896;53.500;10.020;2024-01-25T03:22:41;64.60;;;8.60;;
5742;SDS011;2896;53.500;10.020;2024-01-25T03:25:08;54.93;;;8.13;;
5742;SDS011;2896;53.500;10.020;2024-01-25T03:27:36;42.63;;;8.73;;
5742;SDS011;2896;53.500;10.020;2024-01-25T03:30:03;45.67;;;7.40;;
5742;SDS011;2896;53.500;10.020;2024-01-25T03:32:32;61.73;;;9.00;;
5742;SDS011;2896;53.500;10.020;2024-01-25T03:34:59;57.13;;;8.03;;
5742;SDS011;2896;53.500;10.020;2024-01-25T03:37:26;48.90;;;8.33;;
5742;SDS011;2896;53.500;10.020;2024-01-25T03:39:52;69.50;;;10.70;;
5742;SDS011;2896;53.500;10.020;2024-01-25T03:42:19;79.80;;;9.57;;
5742;SDS011;2896;53.500;10.020;2024-01-25T03:44:45;56.33;;;9.20;;
5742;SDS011;2896;53.500;10.020;2024-01-25T03:47:13;47.13;;;8.10;;
5742;SDS011;2896;53.500;10.020;2024-01-25T03:49:41;43.20;;;9.17;;
5742;SDS011;2896;53.500;10.020;2024-01-25T03:52:07;49.70;;;7.83;;
5742;SDS011;2896;53.500;10.020;2024-01-25T03:54:34;52.60;;;9.07;;
5742;SDS011;2896;53.500;10.020;2024-01-25T03:57:00;45.53;;;9.27;;
5742;SDS011;2896;53.500;10.020;2024-01-25T03:59:27;56.13;;;8.60;;
5742;SDS011;2896;53.500;10.020;2024-01-25T04:01:54;57.77;;;11.20;;
5742;SDS011;2896;53.500;10.020;2024-01-25T04:04:20;52.40;;;8.27;;
5742;SDS011;2896;53.500;10.020;2024-01-25T04:06:48;72.13;;;8.97;;
5742;SDS011;2896;53.500;10.020;2024-01-25T04:09:15;43.57;;;7.00;;
5742;SDS011;2896;53.500;10.020;2024-01-25T04:11:41;55.37;;;10.10;;
5742;SDS011;2896;53.500;10.020;2024-01-25T04:14:09;49.27;;;9.63;;
5742;SDS011;2896;53.500;10.020;2024-01-25T04:16:35;47.80;;;8.50;;
5742;SDS011;2896;53.500;10.020;2024-01-25T04:19:02;46.33;;;8.00;;
5742;SDS011;2896;53.500;10.020;2024-01-25T04:21:28;57.30;;;9.47;;
5742;SDS011;2896;53.500;10.020;2024-01-25T04:23:56;52.73;;;9.03;;
5742;SDS011;2896;53.500;10.020;2024-01-25T04:26:22;54.57;;;10.07;;
5742;SDS011;2896;53.500;10.020;2024-01-25T04:28:49;44.83;;;9.00;;
5742;SDS011;2896;53.500;10.020;2024-01-25T04:31:16;48.43;;;7.80;;
5742;SDS011;2896;53.500;10.020;2024-01-25T04:33:44;64.43;;;11.00;;
5742;SDS011;2896;53.500;10.020;2024-01-25T04:36:11;56.97;;;8.87;;
5742;SDS011;2896;53.500;10.020;2024-01-25T04:38:38;58.33;;;8.10;;
5742;SDS011;2896;53.500;10.020;2024-01-25T04:41:06;49.20;;;9.60;;
5742;SDS011;2896;53.500;10.020;2024-01-25T04:43:36;60.20;;;10.40;;
5742;SDS011;2896;53.500;10.020;2024-01-25T04:46:03;53.13;;;8.47;;
5742;SDS011;2896;53.500;10.020;2024-01-25T04:48:30;63.07;;;9.73;;
5742;SDS011;2896;53.500;10.020;2024-01-25T04:50:56;56.93;;;10.70;;
5742;SDS011;2896;53.500;10.020;2024-01-25T04:53:24;46.00;;;8.07;;
5742;SDS011;2896;53.500;10.020;2024-01-25T04:55:50;58.23;;;9.47;;
5742;SDS011;2896;53.500;10.020;2024-01-25T04:58:18;53.50;;;8.83;;
5742;SDS011;2896;53.500;10.020;2024-01-25T05:00:45;72.17;;;9.60;;
5742;SDS011;2896;53.500;10.020;2024-01-25T05:03:12;51.33;;;9.50;;
5742;SDS011;2896;53.500;10.020;2024-01-25T05:05:38;47.20;;;7.70;;
5742;SDS011;2896;53.500;10.020;2024-01-25T05:08:05;36.67;;;7.13;;
5742;SDS011;2896;53.500;10.020;2024-01-25T05:10:32;46.53;;;8.07;;
5742;SDS011;2896;53.500;10.020;2024-01-25T05:12:59;47.93;;;8.20;;
5742;SDS011;2896;53.500;10.020;2024-01-25T05:15:27;54.97;;;7.27;;
5742;SDS011;2896;53.500;10.020;2024-01-25T05:17:53;50.13;;;8.90;;
5742;SDS011;2896;53.500;10.020;2024-01-25T05:20:20;48.33;;;7.67;;
5742;SDS011;2896;53.500;10.020;2024-01-25T05:22:47;50.23;;;7.63;;
5742;SDS011;2896;53.500;10.020;2024-01-25T05:25:13;50.37;;;9.30;;
5742;SDS011;2896;53.500;10.020;2024-01-25T05:27:40;51.13;;;7.10;;
5742;SDS011;2896;53.500;10.020;2024-01-25T05:30:07;55.63;;;7.30;;
5742;SDS011;2896;53.500;10.020;2024-01-25T05:32:36;49.97;;;9.30;;
5742;SDS011;2896;53.500;10.020;2024-01-25T05:35:03;45.77;;;8.40;;
5742;SDS011;2896;53.500;10.020;2024-01-25T05:37:31;54.80;;;7.57;;
5742;SDS011;2896;53.500;10.020;2024-01-25T05:39:57;53.90;;;7.30;;
5742;SDS011;2896;53.500;10.020;2024-01-25T05:42:24;39.03;;;7.90;;
5742;SDS011;2896;53.500;10.020;2024-01-25T05:44:51;44.23;;;7.33;;
5742;SDS011;2896;53.500;10.020;2024-01-25T05:47:18;67.43;;;8.37;;
5742;SDS011;2896;53.500;10.020;2024-01-25T05:49:46;46.77;;;8.17;;
5742;SDS011;2896;53.500;10.020;2024-01-25T05:52:13;70.10;;;10.10;;
5742;SDS011;2896;53.500;10.020;2024-01-25T05:54:39;47.23;;;9.60;;
5742;SDS011;2896;53.500;10.020;2024-01-25T05:57:06;57.27;;;9.97;;
5742;SDS011;2896;53.500;10.020;2024-01-25T05:59:33;39.73;;;7.60;;
5742;SDS011;2896;53.500;10.020;2024-01-25T06:02:00;47.63;;;7.33;;
5742;SDS011;2896;53.500;10.020;2024-01-25T06:04:27;66.37;;;7.83;;
5742;SDS011;2896;53.500;10.020;2024-01-25T06:06:55;66.00;;;9.20;;
5742;SDS011;2896;53.500;10.020;2024-01-25T06:09:22;43.87;;;7.97;;
5742;SDS011;2896;53.500;10.020;2024-01-25T06:11:49;59.07;;;8.60;;
5742;SDS011;2896;53.500;10.020;2024-01-25T06:14:16;46.70;;;6.97;;
5742;SDS011;2896;53.500;10.020;2024-01-25T06:16:43;53.97;;;8.97;;
5742;SDS011;2896;53.500;10.020;2024-01-25T06:19:10;53.20;;;8.27;;
5742;SDS011;2896;53.500;10.020;2024-01-25T06:21:37;47.40;;;8.13;;
5742;SDS011;2896;53.500;10.020;2024-01-25T06:24:05;60.00;;;8.77;;
5742;SDS011;2896;53.500;10.020;2024-01-25T06:26:33;44.40;;;7.17;;
5742;SDS011;2896;53.500;10.020;2024-01-25T06:28:59;57.77;;;8.33;;
5742;SDS011;2896;53.500;10.020;2024-01-25T06:31:26;70.53;;;8.20;;
5742;SDS011;2896;53.500;10.020;2024-01-25T06:33:54;40.97;;;7.77;;
5742;SDS011;2896;53.500;10.020;2024-01-25T06:36:20;25.83;;;5.87;;
5742;SDS011;2896;53.500;10.020;2024-01-25T06:38:47;62.90;;;8.40;;
5742;SDS011;2896;53.500;10.020;2024-01-25T06:41:16;49.63;;;7.50;;
5742;SDS011;2896;53.500;10.020;2024-01-25T06:43:42;63.03;;;8.87;;
5742;SDS011;2896;53.500;10.020;2024-01-25T06:46:09;38.50;;;7.40;;
5742;SDS011;2896;53.500;10.020;2024-01-25T06:48:36;71.03;;;9.43;;
5742;SDS011;2896;53.500;10.020;2024-01-25T06:51:02;51.77;;;7.53;;
5742;SDS011;2896;53.500;10.020;2024-01-25T06:53:29;52.63;;;7.43;;
5742;SDS011;2896;53.500;10.020;2024-01-25T06:55:56;45.30;;;8.20;;
5742;SDS011;2896;53.500;10.020;2024-01-25T06:58:24;40.77;;;7.10;;
5742;SDS011;2896;53.500;10.020;2024-01-25T07:00:51;45.43;;;7.43;;
5742;SDS011;2896;53.500;10.020;2024-01-25T07:03:18;44.00;;;8.03;;
5742;SDS011;2896;53.500;10.020;2024-01-25T07:05:45;52.37;;;7.63;;
5742;SDS011;2896;53.500;10.020;2024-01-25T07:08:12;56.77;;;7.43;;
5742;SDS011;2896;53.500;10.020;2024-01-25T07:10:39;63.07;;;9.47;;
5742;SDS011;2896;53.500;10.020;2024-01-25T07:13:06;37.37;;;6.97;;
5742;SDS011;2896;53.500;10.020;2024-01-25T07:15:34;42.90;;;7.63;;
5742;SDS011;2896;53.500;10.020;2024-01-25T07:18:01;40.63;;;7.40;;
5742;SDS011;2896;53.500;10.020;2024-01-25T07:20:28;53.57;;;7.93;;
5742;SDS011;2896;53.500;10.020;2024-01-25T07:22:56;48.50;;;6.57;;
5742;SDS011;2896;53.500;10.020;2024-01-25T07:25:22;52.47;;;8.17;;
5742;SDS011;2896;53.500;10.020;2024-01-25T07:27:49;46.20;;;7.77;;
5742;SDS011;2896;53.500;10.020;2024-01-25T07:30:16;45.23;;;8.03;;
5742;SDS011;2896;53.500;10.020;2024-01-25T07:32:44;50.43;;;7.03;;
5742;SDS011;2896;53.500;10.020;2024-01-25T07:35:11;49.57;;;9.10;;
5742;SDS011;2896;53.500;10.020;2024-01-25T07:37:38;53.13;;;6.80;;
5742;SDS011;2896;53.500;10.020;2024-01-25T07:40:06;42.97;;;8.27;;
5742;SDS011;2896;53.500;10.020;2024-01-25T07:42:34;54.50;;;7.50;;
5742;SDS011;2896;53.500;10.020;2024-01-25T07:45:01;70.43;;;8.37;;
5742;SDS011;2896;53.500;10.020;2024-01-25T07:47:28;72.13;;;9.33;;
5742;SDS011;2896;53.500;10.020;2024-01-25T07:49:57;51.27;;;6.23;;
5742;SDS011;2896;53.500;10.020;2024-01-25T07:52:24;51.23;;;7.00;;
5742;SDS011;2896;53.500;10.020;2024-01-25T07:54:51;52.87;;;8.10;;
5742;SDS011;2896;53.500;10.020;2024-01-25T07:57:19;89.93;;;9.23;;
5742;SDS011;2896;53.500;10.020;2024-01-25T07:59:45;65.90;;;9.00;;
5742;SDS011;2896;53.500;10.020;2024-01-25T08:02:12;50.93;;;6.07;;
5742;SDS011;2896;53.500;10.020;2024-01-25T08:04:39;56.10;;;7.67;;
5742;SDS011;2896;53.500;10.020;2024-01-25T08:07:07;51.23;;;8.30;;
5742;SDS011;2896;53.500;10.020;2024-01-25T08:09:34;50.03;;;7.00;;
5742;SDS011;2896;53.500;10.020;2024-01-25T08:12:00;42.93;;;8.50;;
5742;SDS011;2896;53.500;10.020;2024-01-25T08:14:27;40.80;;;7.23;;
5742;SDS011;2896;53.500;10.020;2024-01-25T08:16:54;49.80;;;7.90;;
5742;SDS011;2896;53.500;10.020;2024-01-25T08:19:21;54.07;;;7.23;;
5742;SDS011;2896;53.500;10.020;2024-01-25T08:21:47;47.67;;;7.30;;
5742;SDS011;2896;53.500;10.020;2024-01-25T08:24:16;45.90;;;6.57;;
5742;SDS011;2896;53.500;10.020;2024-01-25T08:26:43;53.07;;;7.80;;
5742;SDS011;2896;53.500;10.020;2024-01-25T08:29:10;53.97;;;8.33;;
5742;SDS011;2896;53.500;10.020;2024-01-25T08:31:37;39.43;;;7.00;;
5742;SDS011;2896;53.500;10.020;2024-01-25T08:34:03;66.67;;;8.33;;
5742;SDS011;2896;53.500;10.020;2024-01-25T08:36:30;62.30;;;7.33;;
5742;SDS011;2896;53.500;10.020;2024-01-25T08:38:57;38.03;;;8.90;;
5742;SDS011;2896;53.500;10.020;2024-01-25T08:41:25;77.20;;;10.47;;
5742;SDS011;2896;53.500;10.020;2024-01-25T08:43:51;64.30;;;7.30;;
5742;SDS011;2896;53.500;10.020;2024-01-25T08:46:18;45.97;;;6.90;;
5742;SDS011;2896;53.500;10.020;2024-01-25T08:48:47;45.47;;;7.40;;
5742;SDS011;2896;53.500;10.020;2024-01-25T08:51:14;59.97;;;8.80;;
5742;SDS011;2896;53.500;10.020;2024-01-25T08:53:41;44.23;;;7.77;;
5742;SDS011;2896;53.500;10.020;2024-01-25T08:56:08;58.53;;;8.00;;
5742;SDS011;2896;53.500;10.020;2024-01-25T08:58:36;60.53;;;8.23;;
5742;SDS011;2896;53.500;10.020;2024-01-25T09:01:02;46.23;;;6.53;;
5742;SDS011;2896;53.500;10.020;2024-01-25T09:03:29;51.77;;;6.47;;
5742;SDS011;2896;53.500;10.020;2024-01-25T09:05:56;38.50;;;6.53;;
5742;SDS011;2896;53.500;10.020;2024-01-25T09:08:22;47.23;;;8.07;;
5742;SDS011;2896;53.500;10.020;2024-01-25T09:10:49;42.17;;;6.97;;
5742;SDS011;2896;53.500;10.020;2024-01-25T09:13:16;44.17;;;7.93;;
5742;SDS011;2896;53.500;10.020;2024-01-25T09:15:44;50.03;;;7.00;;
5742;SDS011;2896;53.500;10.020;2024-01-25T09:18:11;45.33;;;8.10;;
5742;SDS011;2896;53.500;10.020;2024-01-25T09:20:38;46.67;;;8.33;;
5742;SDS011;2896;53.500;10.020;2024-01-25T09:23:05;25.73;;;7.07;;
5742;SDS011;2896;53.500;10.020;2024-01-25T09:25:32;41.30;;;7.37;;
5742;SDS011;2896;53.500;10.020;2024-01-25T09:27:59;46.87;;;7.20;;
5742;SDS011;2896;53.500;10.020;2024-01-25T09:30:26;46.97;;;7.70;;
5742;SDS011;2896;53.500;10.020;2024-01-25T09:32:55;42.20;;;7.10;;
5742;SDS011;2896;53.500;10.020;2024-01-25T09:35:22;54.90;;;7.40;;
5742;SDS011;2896;53.500;10.020;2024-01-25T09:37:48;56.40;;;7.90;;
5742;SDS011;2896;53.500;10.020;2024-01-25T09:40:17;59.83;;;7.67;;
5742;SDS011;2896;53.500;10.020;2024-01-25T09:42:48;39.47;;;5.90;;
5742;SDS011;2896;53.500;10.020;2024-01-25T09:45:18;28.70;;;6.13;;
5742;SDS011;2896;53.500;10.020;2024-01-25T09:47:45;41.33;;;6.93;;
5742;SDS011;2896;53.500;10.020;2024-01-25T09:50:14;58.77;;;7.83;;
5742;SDS011;2896;53.500;10.020;2024-01-25T09:52:41;34.47;;;6.80;;
5742;SDS011;2896;53.500;10.020;2024-01-25T09:55:11;32.20;;;6.30;;
5742;SDS011;2896;53.500;10.020;2024-01-25T09:57:39;52.50;;;7.87;;
5742;SDS011;2896;53.500;10.020;2024-01-25T10:00:11;48.43;;;5.80;;
5742;SDS011;2896;53.500;10.020;2024-01-25T10:02:39;45.97;;;7.00;;
5742;SDS011;2896;53.500;10.020;2024-01-25T10:05:06;45.47;;;7.07;;
5742;SDS011;2896;53.500;10.020;2024-01-25T10:07:38;33.97;;;6.80;;
5742;SDS011;2896;53.500;10.020;2024-01-25T10:10:05;43.07;;;6.97;;
5742;SDS011;2896;53.500;10.020;2024-01-25T10:12:32;43.93;;;6.90;;
5742;SDS011;2896;53.500;10.020;2024-01-25T10:14:59;50.90;;;7.17;;
5742;SDS011;2896;53.500;10.020;2024-01-25T10:17:27;49.97;;;6.20;;
5742;SDS011;2896;53.500;10.020;2024-01-25T10:19:54;52.50;;;8.20;;
5742;SDS011;2896;53.500;10.020;2024-01-25T10:22:21;43.27;;;7.50;;
5742;SDS011;2896;53.500;10.020;2024-01-25T10:24:49;34.87;;;6.90;;
5742;SDS011;2896;53.500;10.020;2024-01-25T10:27:16;37.73;;;7.07;;
5742;SDS011;2896;53.500;10.020;2024-01-25T10:29:43;38.30;;;7.00;;
5742;SDS011;2896;53.500;10.020;2024-01-25T10:32:10;38.30;;;6.77;;
5742;SDS011;2896;53.500;10.020;2024-01-25T10:34:36;39.87;;;6.53;;
5742;SDS011;2896;53.500;10.020;2024-01-25T10:37:03;40.40;;;6.40;;
5742;SDS011;2896;53.500;10.020;2024-01-25T10:39:33;27.67;;;4.70;;
5742;SDS011;2896;53.500;10.020;2024-01-25T10:42:01;36.17;;;5.20;;
5742;SDS011;2896;53.500;10.020;2024-01-25T10:44:28;50.33;;;7.63;;
5742;SDS011;2896;53.500;10.020;2024-01-25T10:46:54;45.87;;;7.00;;
5742;SDS011;2896;53.500;10.020;2024-01-25T10:49:21;37.30;;;5.53;;
5742;SDS011;2896;53.500;10.020;2024-01-25T10:51:48;44.93;;;6.40;;
5742;SDS011;2896;53.500;10.020;2024-01-25T10:54:15;41.40;;;6.60;;
5742;SDS011;2896;53.500;10.020;2024-01-25T10:56:43;43.50;;;6.33;;
5742;SDS011;2896;53.500;10.020;2024-01-25T10:59:11;41.40;;;7.57;;
5742;SDS011;2896;53.500;10.020;2024-01-25T11:01:42;51.10;;;7.07;;
5742;SDS011;2896;53.500;10.020;2024-01-25T11:04:11;61.97;;;8.50;;
5742;SDS011;2896;53.500;10.020;2024-01-25T11:06:39;36.33;;;7.13;;
5742;SDS011;2896;53.500;10.020;2024-01-25T11:09:05;44.03;;;7.73;;
5742;SDS011;2896;53.500;10.020;2024-01-25T11:11:35;35.83;;;6.63;;
5742;SDS011;2896;53.500;10.020;2024-01-25T11:14:02;29.80;;;5.87;;
5742;SDS011;2896;53.500;10.020;2024-01-25T11:16:31;50.20;;;8.17;;
5742;SDS011;2896;53.500;10.020;2024-01-25T11:18:59;36.67;;;6.17;;
5742;SDS011;2896;53.500;10.020;2024-01-25T11:21:38;54.63;;;7.80;;
5742;SDS011;2896;53.500;10.020;2024-01-25T11:24:11;39.77;;;6.27;;
5742;SDS011;2896;53.500;10.020;2024-01-25T11:26:39;59.90;;;8.07;;
5742;SDS011;2896;53.500;10.020;2024-01-25T11:29:09;41.83;;;6.07;;
5742;SDS011;2896;53.500;10.020;2024-01-25T11:31:37;41.37;;;5.57;;
5742;SDS011;2896;53.500;10.020;2024-01-25T11:34:04;30.27;;;6.50;;
5742;SDS011;2896;53.500;10.020;2024-01-25T11:36:30;30.93;;;5.33;;
5742;SDS011;2896;53.500;10.020;2024-01-25T11:38:57;36.73;;;6.70;;
5742;SDS011;2896;53.500;10.020;2024-01-25T11:41:23;38.40;;;6.57;;
5742;SDS011;2896;53.500;10.020;2024-01-25T11:43:50;41.23;;;7.33;;
5742;SDS011;2896;53.500;10.020;2024-01-25T11:46:17;53.47;;;6.93;;
5742;SDS011;2896;53.500;10.020;2024-01-25T11:48:45;37.30;;;6.03;;
5742;SDS011;2896;53.500;10.020;2024-01-25T11:51:15;37.30;;;6.70;;
5742;SDS011;2896;53.500;10.020;2024-01-25T11:53:42;55.93;;;7.80;;
5742;SDS011;2896;53.500;10.020;2024-01-25T11:56:10;49.80;;;7.60;;
5742;SDS011;2896;53.500;10.020;2024-01-25T11:58:41;40.93;;;6.53;;
5742;SDS011;2896;53.500;10.020;2024-01-25T12:01:09;46.20;;;6.80;;
5742;SDS011;2896;53.500;10.020;2024-01-25T12:03:36;48.43;;;7.23;;
5742;SDS011;2896;53.500;10.020;2024-01-25T12:06:05;44.10;;;8.00;;
5742;SDS011;2896;53.500;10.020;2024-01-25T12:08:34;39.83;;;5.43;;
5742;SDS011;2896;53.500;10.020;2024-01-25T12:11:05;39.70;;;6.30;;
5742;SDS011;2896;53.500;10.020;2024-01-25T12:13:33;33.47;;;6.10;;
5742;SDS011;2896;53.500;10.020;2024-01-25T12:16:01;36.37;;;5.60;;
5742;SDS011;2896;53.500;10.020;2024-01-25T12:18:29;45.70;;;6.30;;
5742;SDS011;2896;53.500;10.020;2024-01-25T12:20:57;47.37;;;8.13;;
5742;SDS011;2896;53.500;10.020;2024-01-25T12:23:31;37.73;;;6.30;;
5742;SDS011;2896;53.500;10.020;2024-01-25T12:25:59;40.60;;;6.20;;
5742;SDS011;2896;53.500;10.020;2024-01-25T12:28:26;39.83;;;6.23;;
5742;SDS011;2896;53.500;10.020;2024-01-25T12:30:54;31.70;;;6.00;;
5742;SDS011;2896;53.500;10.020;2024-01-25T12:33:21;49.53;;;8.23;;
5742;SDS011;2896;53.500;10.020;2024-01-25T12:35:47;29.33;;;5.40;;
5742;SDS011;2896;53.500;10.020;2024-01-25T12:38:14;41.87;;;5.50;;
5742;SDS011;2896;53.500;10.020;2024-01-25T12:40:42;50.43;;;6.23;;
5742;SDS011;2896;53.500;10.020;2024-01-25T12:43:10;40.53;;;6.97;;
5742;SDS011;2896;53.500;10.020;2024-01-25T12:45:36;31.00;;;6.47;;
5742;SDS011;2896;53.500;10.020;2024-01-25T12:48:03;34.60;;;5.93;;
5742;SDS011;2896;53.500;10.020;2024-01-25T12:50:31;34.63;;;6.73;;
5742;SDS011;2896;53.500;10.020;2024-01-25T12:52:59;31.93;;;6.10;;
5742;SDS011;2896;53.500;10.020;2024-01-25T12:55:26;38.13;;;5.37;;
5742;SDS011;2896;53.500;10.020;2024-01-25T12:57:55;29.33;;;5.40;;
5742;SDS011;2896;53.500;10.020;2024-01-25T13:00:22;38.87;;;4.77;;
5742;SDS011;2896;53.500;10.020;2024-01-25T13:02:49;32.03;;;5.87;;
5742;SDS011;2896;53.500;10.020;2024-01-25T13:05:16;35.00;;;5.97;;
5742;SDS011;2896;53.500;10.020;2024-01-25T13:07:46;36.60;;;6.10;;
5742;SDS011;2896;53.500;10.020;2024-01-25T13:10:13;43.07;;;5.33;;
5742;SDS011;2896;53.500;10.020;2024-01-25T13:12:39;43.93;;;7.00;;
5742;SDS011;2896;53.500;10.020;2024-01-25T13:15:08;32.60;;;6.90;;
5742;SDS011;2896;53.500;10.020;2024-01-25T13:17:35;37.10;;;6.23;;
5742;SDS011;2896;53.500;10.020;2024-01-25T13:20:02;28.60;;;5.70;;
5742;SDS011;2896;53.500;10.020;2024-01-25T13:22:31;37.03;;;5.93;;
5742;SDS011;2896;53.500;10.020;2024-01-25T13:24:58;29.30;;;5.00;;
5742;SDS011;2896;53.500;10.020;2024-01-25T13:27:24;41.50;;;6.43;;
5742;SDS011;2896;53.500;10.020;2024-01-25T13:29:51;37.20;;;5.80;;
5742;SDS011;2896;53.500;10.020;2024-01-25T13:32:19;24.07;;;4.80;;
5742;SDS011;2896;53.500;10.020;2024-01-25T13:34:46;36.27;;;5.63;;
5742;SDS011;2896;53.500;10.020;2024-01-25T13:37:13;27.57;;;6.37;;
5742;SDS011;2896;53.500;10.020;2024-01-25T13:39:39;22.43;;;5.03;;
5742;SDS011;2896;53.500;10.020;2024-01-25T13:42:06;24.83;;;5.50;;
5742;SDS011;2896;53.500;10.020;2024-01-25T13:44:33;32.00;;;6.40;;
5742;SDS011;2896;53.500;10.020;2024-01-25T13:46:59;25.80;;;4.63;;
5742;SDS011;2896;53.500;10.020;2024-01-25T13:49:28;31.87;;;5.57;;
5742;SDS011;2896;53.500;10.020;2024-01-25T13:51:55;17.67;;;4.30;;
5742;SDS011;2896;53.500;10.020;2024-01-25T13:54:21;50.00;;;5.70;;
5742;SDS011;2896;53.500;10.020;2024-01-25T13:56:48;32.43;;;4.90;;
5742;SDS011;2896;53.500;10.020;2024-01-25T13:59:15;31.50;;;5.93;;
5742;SDS011;2896;53.500;10.020;2024-01-25T14:01:42;37.27;;;5.93;;
5742;SDS011;2896;53.500;10.020;2024-01-25T14:04:08;37.53;;;5.67;;
5742;SDS011;2896;53.500;10.020;2024-01-25T14:06:36;28.87;;;4.90;;
5742;SDS011;2896;53.500;10.020;2024-01-25T14:09:04;22.27;;;5.03;;
5742;SDS011;2896;53.500;10.020;2024-01-25T14:11:31;29.70;;;5.40;;
5742;SDS011;2896;53.500;10.020;2024-01-25T14:13:57;32.70;;;5.30;;
5742;SDS011;2896;53.500;10.020;2024-01-25T14:16:24;25.67;;;5.47;;
5742;SDS011;2896;53.500;10.020;2024-01-25T14:18:51;27.77;;;5.90;;
5742;SDS011;2896;53.500;10.020;2024-01-25T14:21:17;33.27;;;5.80;;
5742;SDS011;2896;53.500;10.020;2024-01-25T14:23:47;30.83;;;6.17;;
5742;SDS011;2896;53.500;10.020;2024-01-25T14:26:13;33.40;;;5.43;;
5742;SDS011;2896;53.500;10.020;2024-01-25T14:28:40;25.43;;;4.70;;
5742;SDS011;2896;53.500;10.020;2024-01-25T14:31:07;33.87;;;5.60;;
5742;SDS011;2896;53.500;10.020;2024-01-25T14:33:33;31.23;;;5.47;;
5742;SDS011;2896;53.500;10.020;2024-01-25T14:36:00;25.10;;;4.00;;
5742;SDS011;2896;53.500;10.020;2024-01-25T14:38:28;37.13;;;5.30;;
5742;SDS011;2896;53.500;10.020;2024-01-25T14:40:56;29.17;;;4.77;;
5742;SDS011;2896;53.500;10.020;2024-01-25T14:43:23;20.03;;;3.63;;
5742;SDS011;2896;53.500;10.020;2024-01-25T14:45:49;18.43;;;4.30;;
5742;SDS011;2896;53.500;10.020;2024-01-25T14:48:17;35.97;;;6.17;;